sensor_id;sensor_type;location;lat;lon;timestamp;pressure;altitude;pressure_sealevel;temperature;humidity
79612;BME280;69094;48.154;11.536;2023-11-18T00:00:57;96228.34;;;3.84;88.33
79612;BME280;69094;48.154;11.536;2023-11-18T00:03:23;96223.75;;;3.79;88.70
79612;BME280;69094;48.154;11.536;2023-11-18T00:05:49;96228.84;;;3.76;88.29
79612;BME280;69094;48.154;11.536;2023-11-18T00:08:15;96227.75;;;3.72;88.69
79612;BME280;69094;48.154;11.536;2023-11-18T00:10:40;96228.06;;;3.80;88.21
79612;BME280;69094;48.154;11.536;2023-11-18T00:13:05;96221.56;;;3.71;87.95
79612;BME280;69094;48.154;11.536;2023-11-18T00:15:31;96224.00;;;3.73;88.10
79612;BME280;69094;48.154;11.536;2023-11-18T00:17:59;96224.81;;;3.68;88.87
79612;BME280;69094;48.154;11.536;2023-11-18T00:20:25;96232.34;;;3.71;88.27
79612;BME280;69094;48.154;11.536;2023-11-18T00:22:51;96231.81;;;3.74;88.07
79612;BME280;69094;48.154;11.536;2023-11-18T00:25:18;96230.72;;;3.70;87.95
79612;BME280;69094;48.154;11.536;2023-11-18T00:27:43;96226.13;;;3.60;88.78
79612;BME280;69094;48.154;11.536;2023-11-18T00:30:09;96228.53;;;3.62;88.43
79612;BME280;69094;48.154;11.536;2023-11-18T00:32:36;96215.06;;;3.57;88.38
79612;BME280;69094;48.154;11.536;2023-11-18T00:35:01;96218.84;;;3.56;88.39
79612;BME280;69094;48.154;11.536;2023-11-18T00:37:30;96225.25;;;3.50;88.70
79612;BME280;69094;48.154;11.536;2023-11-18T00:39:55;96230.09;;;3.48;87.63
79612;BME280;69094;48.154;11.536;2023-11-18T00:42:21;96233.34;;;3.50;87.48
79612;BME280;69094;48.154;11.536;2023-11-18T00:44:46;96231.75;;;3.54;87.82
79612;BME280;69094;48.154;11.536;2023-11-18T00:47:12;96235.00;;;3.56;87.00
79612;BME280;69094;48.154;11.536;2023-11-18T00:49:38;96234.69;;;3.52;86.69
79612;BME280;69094;48.154;11.536;2023-11-18T00:52:04;96234.97;;;3.51;87.55
79612;BME280;69094;48.154;11.536;2023-11-18T00:54:29;96245.16;;;3.43;87.18
79612;BME280;69094;48.154;11.536;2023-11-18T00:56:55;96244.88;;;3.45;87.40
79612;BME280;69094;48.154;11.536;2023-11-18T00:59:21;96244.09;;;3.50;87.49
79612;BME280;69094;48.154;11.536;2023-11-18T01:01:46;96242.50;;;3.54;87.29
79612;BME280;69094;48.154;11.536;2023-11-18T01:04:12;96244.94;;;3.55;87.06
79612;BME280;69094;48.154;11.536;2023-11-18T01:06:37;96249.00;;;3.58;87.05
79612;BME280;69094;48.154;11.536;2023-11-18T01:09:03;96247.38;;;3.62;85.81
79612;BME280;69094;48.154;11.536;2023-11-18T01:11:29;96247.09;;;3.58;86.08
79612;BME280;69094;48.154;11.536;2023-11-18T01:13:54;96249.50;;;3.55;86.69
79612;BME280;69094;48.154;11.536;2023-11-18T01:16:20;96242.50;;;3.54;85.66
79612;BME280;69094;48.154;11.536;2023-11-18T01:18:45;96247.59;;;3.50;86.45
79612;BME280;69094;48.154;11.536;2023-11-18T01:21:11;96248.13;;;3.47;86.09
79612;BME280;69094;48.154;11.536;2023-11-18T01:23:37;96250.53;;;3.43;86.23
79612;BME280;69094;48.154;11.536;2023-11-18T01:26:04;96246.75;;;3.39;87.05
79612;BME280;69094;48.154;11.536;2023-11-18T01:28:34;96249.47;;;3.44;86.89
79612;BME280;69094;48.154;11.536;2023-11-18T01:31:03;96249.44;;;3.39;86.78
79612;BME280;69094;48.154;11.536;2023-11-18T01:33:29;96249.19;;;3.41;87.15
79612;BME280;69094;48.154;11.536;2023-11-18T01:35:55;96252.94;;;3.45;87.34
79612;BME280;69094;48.154;11.536;2023-11-18T01:38:20;96245.97;;;3.44;86.62
79612;BME280;69094;48.154;11.536;2023-11-18T01:40:46;96248.91;;;3.42;87.32
79612;BME280;69094;48.154;11.536;2023-11-18T01:43:11;96261.84;;;3.45;86.91
79612;BME280;69094;48.154;11.536;2023-11-18T01:45:40;96260.53;;;3.48;87.06
79612;BME280;69094;48.154;11.536;2023-11-18T01:48:07;96270.47;;;3.53;86.15
79612;BME280;69094;48.154;11.536;2023-11-18T01:50:37;96266.75;;;3.59;86.13
79612;BME280;69094;48.154;11.536;2023-11-18T01:53:05;96272.13;;;3.59;86.11
79612;BME280;69094;48.154;11.536;2023-11-18T01:55:31;96275.06;;;3.52;86.11
79612;BME280;69094;48.154;11.536;2023-11-18T01:57:56;96274.31;;;3.67;85.73
79612;BME280;69094;48.154;11.536;2023-11-18T02:00:24;96276.44;;;3.60;86.15
79612;BME280;69094;48.154;11.536;2023-11-18T02:02:49;96280.47;;;3.57;86.66
79612;BME280;69094;48.154;11.536;2023-11-18T02:05:15;96265.66;;;3.55;87.00
79612;BME280;69094;48.154;11.536;2023-11-18T02:07:42;96277.47;;;3.49;86.64
79612;BME280;69094;48.154;11.536;2023-11-18T02:10:09;96269.06;;;3.40;87.44
79612;BME280;69094;48.154;11.536;2023-11-18T02:15:05;96279.06;;;3.44;87.08
79612;BME280;69094;48.154;11.536;2023-11-18T02:17:37;96278.50;;;3.42;87.10
79612;BME280;69094;48.154;11.536;2023-11-18T02:20:05;96279.34;;;3.43;87.66
79612;BME280;69094;48.154;11.536;2023-11-18T02:22:40;96282.25;;;3.36;87.74
79612;BME280;69094;48.154;11.536;2023-11-18T02:25:09;96286.00;;;3.35;87.06
79612;BME280;69094;48.154;11.536;2023-11-18T02:27:36;96286.56;;;3.37;88.21
79612;BME280;69094;48.154;11.536;2023-11-18T02:30:01;96280.66;;;3.40;86.92
79612;BME280;69094;48.154;11.536;2023-11-18T02:32:39;96285.47;;;3.33;88.48
79612;BME280;69094;48.154;11.536;2023-11-18T02:35:30;96279.00;;;3.34;88.39
79612;BME280;69094;48.154;11.536;2023-11-18T02:38:01;96282.78;;;3.33;88.13
79612;BME280;69094;48.154;11.536;2023-11-18T02:40:32;96279.84;;;3.40;87.73
79612;BME280;69094;48.154;11.536;2023-11-18T02:42:59;96273.69;;;3.44;87.26
79612;BME280;69094;48.154;11.536;2023-11-18T02:45:26;96283.59;;;3.39;87.35
79612;BME280;69094;48.154;11.536;2023-11-18T02:47:52;96276.09;;;3.41;87.92
79612;BME280;69094;48.154;11.536;2023-11-18T02:50:25;96270.13;;;3.34;87.75
79612;BME280;69094;48.154;11.536;2023-11-18T02:52:53;96283.59;;;3.39;87.56
79612;BME280;69094;48.154;11.536;2023-11-18T02:55:18;96281.47;;;3.41;87.00
79612;BME280;69094;48.154;11.536;2023-11-18T02:57:46;96276.31;;;3.34;87.19
79612;BME280;69094;48.154;11.536;2023-11-18T03:00:13;96275.50;;;3.34;87.96
79612;BME280;69094;48.154;11.536;2023-11-18T03:02:48;96287.13;;;3.44;87.74
79612;BME280;69094;48.154;11.536;2023-11-18T03:05:15;96291.47;;;3.51;87.67
79612;BME280;69094;48.154;11.536;2023-11-18T03:07:41;96291.75;;;3.54;87.36
79612;BME280;69094;48.154;11.536;2023-11-18T03:10:07;96284.22;;;3.56;86.60
79612;BME280;69094;48.154;11.536;2023-11-18T03:12:37;96276.38;;;3.50;87.15
79612;BME280;69094;48.154;11.536;2023-11-18T03:15:05;96286.31;;;3.39;86.99
79612;BME280;69094;48.154;11.536;2023-11-18T03:17:30;96289.25;;;3.42;87.52
79612;BME280;69094;48.154;11.536;2023-11-18T03:19:56;96292.78;;;3.43;87.67
79612;BME280;69094;48.154;11.536;2023-11-18T03:22:22;96291.47;;;3.45;87.69
79612;BME280;69094;48.154;11.536;2023-11-18T03:24:48;96291.44;;;3.40;87.43
79612;BME280;69094;48.154;11.536;2023-11-18T03:27:14;96290.84;;;3.33;87.97
79612;BME280;69094;48.154;11.536;2023-11-18T03:29:40;96298.13;;;3.38;87.78
79612;BME280;69094;48.154;11.536;2023-11-18T03:32:06;96288.19;;;3.38;87.20
79612;BME280;69094;48.154;11.536;2023-11-18T03:34:31;96307.56;;;3.40;87.77
79612;BME280;69094;48.154;11.536;2023-11-18T03:36:57;96302.19;;;3.40;87.62
79612;BME280;69094;48.154;11.536;2023-11-18T03:39:22;96305.16;;;3.44;87.33
79612;BME280;69094;48.154;11.536;2023-11-18T03:41:48;96304.34;;;3.43;87.25
79612;BME280;69094;48.154;11.536;2023-11-18T03:44:15;96310.81;;;3.48;88.05
79612;BME280;69094;48.154;11.536;2023-11-18T03:46:40;96323.22;;;3.49;87.39
79612;BME280;69094;48.154;11.536;2023-11-18T03:49:06;96314.84;;;3.45;87.43
79612;BME280;69094;48.154;11.536;2023-11-18T03:51:31;96335.59;;;3.50;87.15
79612;BME280;69094;48.154;11.536;2023-11-18T03:53:57;96328.59;;;3.49;87.55
79612;BME280;69094;48.154;11.536;2023-11-18T03:56:22;96323.44;;;3.42;87.82
79612;BME280;69094;48.154;11.536;2023-11-18T03:58:48;96329.09;;;3.40;87.70
79612;BME280;69094;48.154;11.536;2023-11-18T04:01:25;96325.00;;;3.33;87.63
79612;BME280;69094;48.154;11.536;2023-11-18T04:03:53;96334.19;;;3.37;88.08
79612;BME280;69094;48.154;11.536;2023-11-18T04:06:20;96329.03;;;3.35;88.06
79612;BME280;69094;48.154;11.536;2023-11-18T04:08:47;96331.72;;;3.35;87.97
79612;BME280;69094;48.154;11.536;2023-11-18T04:11:13;96324.75;;;3.34;88.95
79612;BME280;69094;48.154;11.536;2023-11-18T04:13:43;96326.41;;;3.40;88.26
79612;BME280;69094;48.154;11.536;2023-11-18T04:16:16;96313.75;;;3.41;88.04
79612;BME280;69094;48.154;11.536;2023-11-18T04:18:45;96325.03;;;3.38;87.76
79612;BME280;69094;48.154;11.536;2023-11-18T04:21:11;96319.38;;;3.34;88.28
79612;BME280;69094;48.154;11.536;2023-11-18T04:23:38;96330.97;;;3.40;88.13
79612;BME280;69094;48.154;11.536;2023-11-18T04:26:04;96328.03;;;3.47;87.73
79612;BME280;69094;48.154;11.536;2023-11-18T04:28:30;96322.13;;;3.50;87.50
79612;BME280;69094;48.154;11.536;2023-11-18T04:30:56;96317.06;;;3.53;86.26
79612;BME280;69094;48.154;11.536;2023-11-18T04:33:21;96325.16;;;3.58;87.07
79612;BME280;69094;48.154;11.536;2023-11-18T04:35:47;96330.78;;;3.57;86.38
79612;BME280;69094;48.154;11.536;2023-11-18T04:38:12;96330.31;;;3.70;85.76
79612;BME280;69094;48.154;11.536;2023-11-18T04:40:38;96322.75;;;3.67;85.85
79612;BME280;69094;48.154;11.536;2023-11-18T04:43:06;96332.47;;;3.68;86.32
79612;BME280;69094;48.154;11.536;2023-11-18T04:45:32;96320.63;;;3.69;85.59
79612;BME280;69094;48.154;11.536;2023-11-18T04:47:57;96324.38;;;3.63;85.62
79612;BME280;69094;48.154;11.536;2023-11-18T04:50:24;96319.50;;;3.65;85.37
79612;BME280;69094;48.154;11.536;2023-11-18T04:52:49;96327.63;;;3.70;85.67
79612;BME280;69094;48.154;11.536;2023-11-18T04:55:15;96331.13;;;3.71;85.22
79612;BME280;69094;48.154;11.536;2023-11-18T04:57:40;96323.34;;;3.79;85.35
79612;BME280;69094;48.154;11.536;2023-11-18T05:00:06;96329.53;;;3.80;85.31
79612;BME280;69094;48.154;11.536;2023-11-18T05:02:38;96324.91;;;3.70;85.07
79612;BME280;69094;48.154;11.536;2023-11-18T05:05:04;96326.84;;;3.75;84.75
79612;BME280;69094;48.154;11.536;2023-11-18T05:07:31;96330.25;;;3.60;85.14
79612;BME280;69094;48.154;11.536;2023-11-18T05:09:57;96328.06;;;3.52;85.92
79612;BME280;69094;48.154;11.536;2023-11-18T05:12:22;96332.69;;;3.56;86.23
79612;BME280;69094;48.154;11.536;2023-11-18T05:14:47;96335.13;;;3.58;85.92
79612;BME280;69094;48.154;11.536;2023-11-18T05:17:15;96339.94;;;3.56;86.26
79612;BME280;69094;48.154;11.536;2023-11-18T05:19:41;96336.41;;;3.50;86.51
79612;BME280;69094;48.154;11.536;2023-11-18T05:22:06;96331.53;;;3.47;86.17
79612;BME280;69094;48.154;11.536;2023-11-18T05:24:31;96313.22;;;3.39;87.22
79612;BME280;69094;48.154;11.536;2023-11-18T05:26:57;96318.63;;;3.49;86.30
79612;BME280;69094;48.154;11.536;2023-11-18T05:29:30;96304.94;;;3.51;86.66
79612;BME280;69094;48.154;11.536;2023-11-18T05:31:55;96305.97;;;3.44;86.57
79612;BME280;69094;48.154;11.536;2023-11-18T05:34:21;96308.66;;;3.44;87.07
79612;BME280;69094;48.154;11.536;2023-11-18T05:36:47;96320.50;;;3.43;86.82
79612;BME280;69094;48.154;11.536;2023-11-18T05:39:14;96322.66;;;3.47;86.63
79612;BME280;69094;48.154;11.536;2023-11-18T05:41:45;96315.69;;;3.51;86.67
79612;BME280;69094;48.154;11.536;2023-11-18T05:44:14;96315.66;;;3.40;86.66
79612;BME280;69094;48.154;11.536;2023-11-18T05:46:45;96314.81;;;3.40;87.17
79612;BME280;69094;48.154;11.536;2023-11-18T05:49:16;96324.53;;;3.41;87.46
79612;BME280;69094;48.154;11.536;2023-11-18T05:51:43;96323.13;;;3.33;86.96
79612;BME280;69094;48.154;11.536;2023-11-18T05:54:09;96316.69;;;3.34;87.47
79612;BME280;69094;48.154;11.536;2023-11-18T05:56:35;96325.31;;;3.36;87.56
79612;BME280;69094;48.154;11.536;2023-11-18T05:59:01;96332.28;;;3.37;87.59
79612;BME280;69094;48.154;11.536;2023-11-18T06:01:29;96340.94;;;3.44;87.40
79612;BME280;69094;48.154;11.536;2023-11-18T06:03:55;96338.00;;;3.46;87.63
79612;BME280;69094;48.154;11.536;2023-11-18T06:06:22;96345.53;;;3.44;87.51
79612;BME280;69094;48.154;11.536;2023-11-18T06:08:48;96356.03;;;3.45;87.90
79612;BME280;69094;48.154;11.536;2023-11-18T06:11:14;96351.44;;;3.41;87.29
79612;BME280;69094;48.154;11.536;2023-11-18T06:16:15;96365.72;;;3.47;87.44
79612;BME280;69094;48.154;11.536;2023-11-18T06:18:44;96364.63;;;3.48;87.43
79612;BME280;69094;48.154;11.536;2023-11-18T06:23:39;96362.78;;;3.48;87.25
79612;BME280;69094;48.154;11.536;2023-11-18T06:26:05;96361.66;;;3.44;87.88
79612;BME280;69094;48.154;11.536;2023-11-18T06:28:30;96371.91;;;3.47;87.18
79612;BME280;69094;48.154;11.536;2023-11-18T06:30:57;96359.78;;;3.44;87.30
79612;BME280;69094;48.154;11.536;2023-11-18T06:33:23;96367.06;;;3.44;87.89
79612;BME280;69094;48.154;11.536;2023-11-18T06:35:48;96368.38;;;3.41;87.72
79612;BME280;69094;48.154;11.536;2023-11-18T06:38:14;96363.03;;;3.47;87.16
79612;BME280;69094;48.154;11.536;2023-11-18T06:40:40;96361.41;;;3.45;87.78
79612;BME280;69094;48.154;11.536;2023-11-18T06:43:05;96358.22;;;3.54;87.09
79612;BME280;69094;48.154;11.536;2023-11-18T06:45:36;96350.44;;;3.57;86.96
79612;BME280;69094;48.154;11.536;2023-11-18T06:48:03;96355.81;;;3.57;86.19
79612;BME280;69094;48.154;11.536;2023-11-18T06:50:30;96356.66;;;3.58;86.93
79612;BME280;69094;48.154;11.536;2023-11-18T06:52:57;96360.41;;;3.57;87.06
79612;BME280;69094;48.154;11.536;2023-11-18T06:55:22;96358.50;;;3.57;86.92
79612;BME280;69094;48.154;11.536;2023-11-18T06:57:48;96361.50;;;3.61;87.12
79612;BME280;69094;48.154;11.536;2023-11-18T07:00:14;96361.53;;;3.66;86.95
79612;BME280;69094;48.154;11.536;2023-11-18T07:02:40;96362.38;;;3.77;86.29
79612;BME280;69094;48.154;11.536;2023-11-18T07:05:05;96366.16;;;3.76;86.76
79612;BME280;69094;48.154;11.536;2023-11-18T07:07:31;96368.28;;;3.74;86.67
79612;BME280;69094;48.154;11.536;2023-11-18T07:09:57;96364.81;;;3.73;86.80
79612;BME280;69094;48.154;11.536;2023-11-18T07:12:22;96359.41;;;3.73;86.05
79612;BME280;69094;48.154;11.536;2023-11-18T07:14:48;96357.28;;;3.75;86.44
79612;BME280;69094;48.154;11.536;2023-11-18T07:17:14;96366.44;;;3.79;85.99
79612;BME280;69094;48.154;11.536;2023-11-18T07:19:39;96368.06;;;3.80;86.23
79612;BME280;69094;48.154;11.536;2023-11-18T07:22:05;96364.84;;;3.83;85.57
79612;BME280;69094;48.154;11.536;2023-11-18T07:24:32;96363.78;;;3.89;85.99
79612;BME280;69094;48.154;11.536;2023-11-18T07:26:57;96372.97;;;3.99;85.84
79612;BME280;69094;48.154;11.536;2023-11-18T07:29:25;96377.34;;;4.10;85.28
79612;BME280;69094;48.154;11.536;2023-11-18T07:31:52;96371.69;;;4.12;85.39
79612;BME280;69094;48.154;11.536;2023-11-18T07:34:20;96368.16;;;4.06;85.36
79612;BME280;69094;48.154;11.536;2023-11-18T07:36:46;96373.66;;;4.42;87.60
79612;BME280;69094;48.154;11.536;2023-11-18T07:39:12;96384.78;;;4.71;87.98
79612;BME280;69094;48.154;11.536;2023-11-18T07:41:41;96372.66;;;4.99;86.78
79612;BME280;69094;48.154;11.536;2023-11-18T07:44:07;96387.22;;;5.59;81.28
79612;BME280;69094;48.154;11.536;2023-11-18T07:46:36;96393.16;;;5.67;78.38
79612;BME280;69094;48.154;11.536;2023-11-18T07:49:03;96380.75;;;5.45;77.86
79612;BME280;69094;48.154;11.536;2023-11-18T07:51:29;96382.38;;;5.21;79.34
79612;BME280;69094;48.154;11.536;2023-11-18T07:53:54;96387.53;;;5.12;79.08
79612;BME280;69094;48.154;11.536;2023-11-18T07:56:20;96385.63;;;4.92;80.20
79612;BME280;69094;48.154;11.536;2023-11-18T07:58:47;96398.81;;;4.88;80.78
79612;BME280;69094;48.154;11.536;2023-11-18T08:01:13;96381.56;;;4.89;81.12
79612;BME280;69094;48.154;11.536;2023-11-18T08:03:42;96386.69;;;4.96;80.24
79612;BME280;69094;48.154;11.536;2023-11-18T08:06:08;96382.09;;;4.96;80.42
79612;BME280;69094;48.154;11.536;2023-11-18T08:08:36;96387.78;;;5.00;80.45
79612;BME280;69094;48.154;11.536;2023-11-18T08:11:04;96400.19;;;4.91;80.71
79612;BME280;69094;48.154;11.536;2023-11-18T08:13:29;96392.34;;;4.84;80.29
79612;BME280;69094;48.154;11.536;2023-11-18T08:15:55;96397.72;;;4.84;80.44
79612;BME280;69094;48.154;11.536;2023-11-18T08:18:22;96395.88;;;5.05;80.15
79612;BME280;69094;48.154;11.536;2023-11-18T08:20:49;96388.34;;;4.97;80.43
79612;BME280;69094;48.154;11.536;2023-11-18T08:23:14;96388.84;;;4.94;79.99
79612;BME280;69094;48.154;11.536;2023-11-18T08:25:40;96385.09;;;4.85;80.30
79612;BME280;69094;48.154;11.536;2023-11-18T08:28:06;96374.84;;;4.97;79.99
79612;BME280;69094;48.154;11.536;2023-11-18T08:30:32;96379.94;;;4.88;79.34
79612;BME280;69094;48.154;11.536;2023-11-18T08:32:59;96392.63;;;5.03;79.95
79612;BME280;69094;48.154;11.536;2023-11-18T08:35:24;96395.06;;;5.10;79.87
79612;BME280;69094;48.154;11.536;2023-11-18T08:37:50;96399.66;;;5.09;79.03
79612;BME280;69094;48.154;11.536;2023-11-18T08:40:16;96413.13;;;5.04;79.21
79612;BME280;69094;48.154;11.536;2023-11-18T08:42:47;96412.06;;;5.05;79.33
79612;BME280;69094;48.154;11.536;2023-11-18T08:45:19;96406.41;;;5.22;79.23
79612;BME280;69094;48.154;11.536;2023-11-18T08:47:46;96401.25;;;5.41;79.75
79612;BME280;69094;48.154;11.536;2023-11-18T08:50:16;96403.94;;;5.51;78.98
79612;BME280;69094;48.154;11.536;2023-11-18T08:52:45;96389.38;;;5.63;77.90
79612;BME280;69094;48.154;11.536;2023-11-18T08:55:14;96380.16;;;5.79;76.81
79612;BME280;69094;48.154;11.536;2023-11-18T08:57:48;96373.38;;;5.87;74.98
79612;BME280;69094;48.154;11.536;2023-11-18T09:00:30;96372.03;;;5.74;74.79
79612;BME280;69094;48.154;11.536;2023-11-18T09:03:14;96390.91;;;6.04;74.84
79612;BME280;69094;48.154;11.536;2023-11-18T09:05:46;96395.22;;;6.06;74.08
79612;BME280;69094;48.154;11.536;2023-11-18T09:08:37;96378.47;;;5.93;73.88
79612;BME280;69094;48.154;11.536;2023-11-18T09:11:08;96374.38;;;6.16;74.20
79612;BME280;69094;48.154;11.536;2023-11-18T09:13:35;96384.69;;;6.09;73.00
79612;BME280;69094;48.154;11.536;2023-11-18T09:16:04;96377.13;;;5.91;73.25
79612;BME280;69094;48.154;11.536;2023-11-18T09:18:34;96379.56;;;5.92;73.49
79612;BME280;69094;48.154;11.536;2023-11-18T09:21:00;96381.97;;;6.09;73.41
79612;BME280;69094;48.154;11.536;2023-11-18T09:23:27;96389.25;;;6.19;73.02
79612;BME280;69094;48.154;11.536;2023-11-18T09:25:53;96385.91;;;6.37;72.37
79612;BME280;69094;48.154;11.536;2023-11-18T09:28:20;96381.19;;;6.58;70.81
79612;BME280;69094;48.154;11.536;2023-11-18T09:30:46;96379.28;;;6.64;70.79
79612;BME280;69094;48.154;11.536;2023-11-18T09:33:18;96382.09;;;6.88;69.64
79612;BME280;69094;48.154;11.536;2023-11-18T09:35:57;96382.19;;;7.12;68.88
79612;BME280;69094;48.154;11.536;2023-11-18T09:38:26;96386.25;;;7.44;68.18
79612;BME280;69094;48.154;11.536;2023-11-18T09:40:56;96391.41;;;7.45;66.97
79612;BME280;69094;48.154;11.536;2023-11-18T09:43:24;96382.84;;;7.62;66.41
79612;BME280;69094;48.154;11.536;2023-11-18T09:45:54;96385.50;;;7.67;66.53
79612;BME280;69094;48.154;11.536;2023-11-18T09:48:20;96374.16;;;8.13;65.92
79612;BME280;69094;48.154;11.536;2023-11-18T09:50:51;96373.19;;;9.42;59.74
79612;BME280;69094;48.154;11.536;2023-11-18T09:53:17;96374.00;;;10.30;57.96
79612;BME280;69094;48.154;11.536;2023-11-18T09:56:04;96369.94;;;10.69;55.61
79612;BME280;69094;48.154;11.536;2023-11-18T09:58:45;96384.28;;;11.42;54.68
79612;BME280;69094;48.154;11.536;2023-11-18T10:01:15;96381.50;;;10.89;55.83
79612;BME280;69094;48.154;11.536;2023-11-18T10:03:44;96382.19;;;11.39;53.81
79612;BME280;69094;48.154;11.536;2023-11-18T10:06:12;96373.09;;;12.38;50.66
79612;BME280;69094;48.154;11.536;2023-11-18T10:08:40;96374.41;;;12.49;49.93
79612;BME280;69094;48.154;11.536;2023-11-18T10:11:06;96372.84;;;12.74;50.99
79612;BME280;69094;48.154;11.536;2023-11-18T10:13:35;96359.88;;;13.23;47.73
79612;BME280;69094;48.154;11.536;2023-11-18T10:16:07;96366.16;;;12.98;47.97
79612;BME280;69094;48.154;11.536;2023-11-18T10:18:32;96372.41;;;13.15;48.53
79612;BME280;69094;48.154;11.536;2023-11-18T10:21:02;96357.78;;;13.11;47.77
79612;BME280;69094;48.154;11.536;2023-11-18T10:23:29;96349.94;;;13.27;47.46
79612;BME280;69094;48.154;11.536;2023-11-18T10:26:00;96352.75;;;13.66;46.19
79612;BME280;69094;48.154;11.536;2023-11-18T10:30:59;96342.75;;;13.78;44.70
79612;BME280;69094;48.154;11.536;2023-11-18T10:33:32;96332.22;;;13.33;44.93
79612;BME280;69094;48.154;11.536;2023-11-18T10:36:01;96335.94;;;13.38;45.01
79612;BME280;69094;48.154;11.536;2023-11-18T10:38:31;96339.81;;;13.92;44.60
79612;BME280;69094;48.154;11.536;2023-11-18T10:40:58;96325.69;;;14.50;41.57
79612;BME280;69094;48.154;11.536;2023-11-18T10:43:26;96334.06;;;14.53;41.59
79612;BME280;69094;48.154;11.536;2023-11-18T10:46:10;96322.00;;;14.46;41.48
79612;BME280;69094;48.154;11.536;2023-11-18T10:48:41;96329.94;;;14.09;41.98
79612;BME280;69094;48.154;11.536;2023-11-18T10:51:10;96346.75;;;14.58;41.67
79612;BME280;69094;48.154;11.536;2023-11-18T10:53:43;96350.84;;;13.49;43.75
79612;BME280;69094;48.154;11.536;2023-11-18T10:56:19;96343.94;;;13.25;44.19
79612;BME280;69094;48.154;11.536;2023-11-18T10:58:50;96348.03;;;13.84;42.32
79612;BME280;69094;48.154;11.536;2023-11-18T11:01:26;96343.16;;;13.33;43.01
79612;BME280;69094;48.154;11.536;2023-11-18T11:03:55;96341.22;;;13.08;42.97
79612;BME280;69094;48.154;11.536;2023-11-18T11:06:24;96333.94;;;12.51;44.79
79612;BME280;69094;48.154;11.536;2023-11-18T11:08:53;96336.59;;;12.16;45.19
79612;BME280;69094;48.154;11.536;2023-11-18T11:11:22;96336.38;;;12.53;44.77
79612;BME280;69094;48.154;11.536;2023-11-18T11:13:59;96345.81;;;11.35;46.98
79612;BME280;69094;48.154;11.536;2023-11-18T11:16:40;96348.94;;;9.45;51.66
79612;BME280;69094;48.154;11.536;2023-11-18T11:19:31;96341.41;;;8.72;55.11
79612;BME280;69094;48.154;11.536;2023-11-18T11:22:07;96345.69;;;8.78;55.59
79612;BME280;69094;48.154;11.536;2023-11-18T11:25:33;96337.47;;;8.45;55.74
79612;BME280;69094;48.154;11.536;2023-11-18T11:28:04;96343.44;;;8.42;56.38
79612;BME280;69094;48.154;11.536;2023-11-18T11:30:44;96356.75;;;8.62;57.21
79612;BME280;69094;48.154;11.536;2023-11-18T11:35:42;96355.25;;;8.08;57.93
79612;BME280;69094;48.154;11.536;2023-11-18T11:38:15;96359.03;;;8.07;57.68
79612;BME280;69094;48.154;11.536;2023-11-18T11:40:42;96351.63;;;7.94;58.33
79612;BME280;69094;48.154;11.536;2023-11-18T11:43:10;96342.50;;;8.09;57.73
79612;BME280;69094;48.154;11.536;2023-11-18T11:45:48;96350.75;;;8.23;56.78
79612;BME280;69094;48.154;11.536;2023-11-18T11:48:14;96351.06;;;9.16;55.00
79612;BME280;69094;48.154;11.536;2023-11-18T11:50:55;96338.63;;;10.03;53.47
79612;BME280;69094;48.154;11.536;2023-11-18T11:53:32;96331.69;;;10.24;51.66
79612;BME280;69094;48.154;11.536;2023-11-18T11:56:01;96332.78;;;9.68;52.88
79612;BME280;69094;48.154;11.536;2023-11-18T11:58:41;96320.59;;;9.19;54.45
79612;BME280;69094;48.154;11.536;2023-11-18T12:01:35;96330.44;;;8.82;55.47
79612;BME280;69094;48.154;11.536;2023-11-18T12:04:08;96328.59;;;8.58;55.43
79612;BME280;69094;48.154;11.536;2023-11-18T12:06:44;96312.69;;;8.09;56.43
79612;BME280;69094;48.154;11.536;2023-11-18T12:09:31;96308.22;;;8.18;57.47
79612;BME280;69094;48.154;11.536;2023-11-18T12:12:03;96308.00;;;8.57;56.51
79612;BME280;69094;48.154;11.536;2023-11-18T12:14:30;96307.28;;;9.03;55.18
79612;BME280;69094;48.154;11.536;2023-11-18T12:17:07;96309.38;;;9.06;54.91
79612;BME280;69094;48.154;11.536;2023-11-18T12:19:35;96312.41;;;9.05;54.75
79612;BME280;69094;48.154;11.536;2023-11-18T12:22:10;96315.16;;;8.86;54.62
79612;BME280;69094;48.154;11.536;2023-11-18T12:24:46;96310.69;;;8.76;54.42
79612;BME280;69094;48.154;11.536;2023-11-18T12:27:13;96313.47;;;8.71;55.11
79612;BME280;69094;48.154;11.536;2023-11-18T12:29:42;96315.91;;;8.73;55.57
79612;BME280;69094;48.154;11.536;2023-11-18T12:32:11;96297.00;;;9.00;54.32
79612;BME280;69094;48.154;11.536;2023-11-18T12:34:52;96285.22;;;8.91;53.63
79612;BME280;69094;48.154;11.536;2023-11-18T12:40:53;96282.72;;;8.95;53.83
79612;BME280;69094;48.154;11.536;2023-11-18T12:43:50;96276.41;;;8.99;53.73
79612;BME280;69094;48.154;11.536;2023-11-18T12:49:14;96262.88;;;8.94;52.86
79612;BME280;69094;48.154;11.536;2023-11-18T12:51:49;96260.94;;;9.14;53.07
79612;BME280;69094;48.154;11.536;2023-11-18T12:54:15;96258.97;;;9.33;52.32
79612;BME280;69094;48.154;11.536;2023-11-18T12:56:42;96255.84;;;9.26;52.51
79612;BME280;69094;48.154;11.536;2023-11-18T12:59:17;96253.28;;;9.02;52.78
79612;BME280;69094;48.154;11.536;2023-11-18T13:01:52;96249.50;;;8.84;53.29
79612;BME280;69094;48.154;11.536;2023-11-18T13:04:30;96251.91;;;8.53;53.26
79612;BME280;69094;48.154;11.536;2023-11-18T13:06:56;96266.81;;;8.69;53.29
79612;BME280;69094;48.154;11.536;2023-11-18T13:09:23;96263.56;;;8.86;53.15
79612;BME280;69094;48.154;11.536;2023-11-18T13:11:58;96251.84;;;8.91;52.04
79612;BME280;69094;48.154;11.536;2023-11-18T13:14:25;96244.16;;;8.79;52.97
79612;BME280;69094;48.154;11.536;2023-11-18T13:16:52;96243.78;;;8.86;53.14
79612;BME280;69094;48.154;11.536;2023-11-18T13:19:26;96242.28;;;8.60;53.53
79612;BME280;69094;48.154;11.536;2023-11-18T13:21:59;96236.09;;;8.17;54.68
79612;BME280;69094;48.154;11.536;2023-11-18T13:24:28;96236.91;;;7.98;55.57
79612;BME280;69094;48.154;11.536;2023-11-18T13:26:55;96233.81;;;7.86;55.66